Malvern, PA

06:14 AM EST die 22o November, anno 2017 (GMT -0500)
Paoli Rail Yard | | Change Station

Elev 535 ft 40.04 °N, 75.49 °W | Updated 13 seconds ago

Aequaliter Nubila
Aequaliter Nubila
50.3 °F
Feels Like 50.3 °F
N
2.0
Ventus Variabilis Ventus from Inter Aquilonem et Zephyrus

Hodie
High -- | Low -- °F
--% Chance of Precip.
Yesterday
High -- | Low -- °F
Precip. -- in
Pressio 29.91 in
Visibilitas 8.0 milia passuum
Clouds Aequaliter Nubila 7500 ft
Frigus in quo Ros apparet 46 °F
Umor 86%
Rainfall 0.00 in
Snow Depth Not available.
6:55 AM 4:40 PM
Waxing Crescent, 14% visible
METAR KPTW 221054Z AUTO 00000KT 8SM -RA OVC075 07/07 A2991 RMK AO2 RAB13 SLP128 P0000 T00720072
Pressio 29.91 in
Visibilitas 8.0 milia passuum
Clouds Aequaliter Nubila 7500 ft
Frigus in quo Ros apparet 46 °F
Umor 86%
Rainfall 0.00 in
Snow Depth Not available.
6:55 AM 4:40 PM
Waxing Crescent, 14% visible
METAR KPTW 221054Z AUTO 00000KT 8SM -RA OVC075 07/07 A2991 RMK AO2 RAB13 SLP128 P0000 T00720072

Get Severe Weather Alerts

Thanks for signing up!

Be on the lookout for a verification email in your inbox.

You'll start receiving the daily forecast at 6 AM.

×

10-Day Weather Forecast

Almanac

Astronomy

Nov. 22, 2017 Rise Set
Actual Time
Civil Twilight
Nautical Twilight
Astronomical Twilight
Moon
Length Of Visible Light
Length of Day
Tomorrow will be .
, % of the Moon is Illuminated

Today's Extremes

State Highs State Lows

Community

WunderPhotos

Category 6

Welcome to Category 6. This is the collective home for Weather Underground's featured writeups by Dr. Jeff Masters (right), Bob Henson (left), Chris Burt, and other regular contributors.

Nearby

Air Quality

  Air Quality AQ Index Pollutant
Not available.

Snow Depth

Station Depth Elevation

Earthquake Activity

City Distance Mag. Time & Date
Minimum magnitude displayed is 2.5.

Coastal Water Temperatures

Locus Calor

Stations

Nearby Weather Stations

Station Location Temp Frigus Venti Frigus in quo Ros apparet Umor Ventus Precip. Elev Renovata Type
                   

Watches & Warnings

There are currently no watches in effect.